Aviation Digital Data Service (ADDS)

Output produced by METARs form (1811 UTC 14 August 2018)
found at http://www.aviationweather.gov/adds/metars/
 
VTBD 141800Z 21006KT 9999 FEW020 28/25 Q1007 NOSIG
TAF VTBD 141700Z 1418/1524 20008KT 9999 FEW020 SCT100 
     TEMPO 1506/1512 19010G25KT 5000 TSRA FEW018CB SCT030 BKN100 
     BECMG 1518/1520 26008KT
       
VTUO 141300Z 21005KT 6000 SCT020 BKN080 26/26 Q1006
TAF VTUO 141700Z 1418/1518 23008KT 8000 SCT025 BKN100 
     BECMG 1420/1422 4000 BR 
     BECMG 1500/1502 8000 NSW 
     TEMPO 1503/1506 VRB15KT 5000 TSRA FEW018CB BKN020 OVC100
       
VTCC 141800Z 00000KT 9999 SCT035 26/23 Q1008 NOSIG
TAF VTCC 141700Z 1418/1524 24005KT 9999 BKN030 
     TEMPO 1508/1515 VRB15G25KT 5000 TSRA FEW025CB BKN030
       
VTCT 141800Z VRB01KT 9999 -RA FEW012 BKN025 OVC100 24/24 Q1007 NOSIG
TAF VTCT 141700Z 1418/1524 22005KT 9999 BKN030 
     TEMPO 1508/1515 VRB15G25KT 5000 TSRA FEW025CB BKN030
       
VTSE 141300Z 25004KT 6000 FEW020 SCT100 27/24 Q1007 NOSIG
TAF VTSE 141700Z 1418/1518 24005KT 5000 BR FEW020 BKN100 
     BECMG 1501/1503 8000 NSW 
     TEMPO 1505/1511 24010G20KT 6000 -RA SCT015 BKN100 
     TEMPO 1511/1517 4000 -RA BR SCT015 BKN100
       
VTSS 141800Z 00000KT 8000 FEW020 25/24 Q1009 NOSIG
TAF VTSS 141700Z 1418/1518 VRB02KT 8000 FEW020 
     BECMG 1504/1506 24010KT 
     BECMG 1513/1515 VRB02KT
       
TAF VTPH 141700Z 1418/1518 00000KT 9999 SCT030 
     BECMG 1501/1503 23005KT 
     TEMPO 1507/1512 VRB12KT 6000 TSRA FEW018CB SCT030 BKN100 
     BECMG 1512/1514 00000KT
       
VTUK 141800Z 22005KT 190V250 8000 FEW025 BKN100 26/23 Q1005 NOSIG
TAF VTUK 141700Z 1418/1518 22005KT 8000 SCT030 BKN100 
     TEMPO 1506/1513 VRB15KT 5000 TSRA FEW018CB SCT025 BKN100
       
VTSG 141800Z AUTO 00000KT 3900 BR ////// 25/25 Q1010 A2983
TAF VTSG 141700Z 1418/1518 00000KT 8000 FEW020 
     TEMPO 1420/1424 24010G25KT 5000 RA FEW018TCU SCT020 BKN100 
     BECMG 1500/1502 24008KT 9999 
     BECMG 1516/1518 00000KT 8000
       
VTCL 141300Z 18004KT 9999 FEW025 SCT100 26/23 Q1005 NOSIG
TAF VTCL 141700Z 1418/1518 22005KT 9999 BKN030 
     TEMPO 1508/1515 VRB15G25KT 5000 TSRA FEW025CB BKN030
       
TAF VTUL 141700Z 1418/1518 26005KT 8000 SCT030 BKN080 
     TEMPO 1418/1422 26010KT 7000 -RA SCT025 BKN080 
     TEMPO 1508/1514 VRB15KT 5000 TSRA FEW018CB SCT025 BKN080
       
TAF VTCH 141700Z 1418/1518 24005KT 9999 BKN030 
     TEMPO 1508/1515 VRB15G25KT 5000 TSRA FEW025CB BKN030
       
TAF VTPM 141700Z 1418/1518 24005KT 9999 BKN030 
     TEMPO 1508/1515 VRB15G25KT 5000 TSRA FEW025CB BKN030
       
TAF VTUW 141700Z 1418/1518 26005KT 9000 BKN020 BKN060 
     TEMPO 1418/1423 27010KT 6000 -RA BKN020 BKN060 
     TEMPO 1506/1514 VRB15KT 5000 TSRA FEW018CB SCT020 BKN080
       
VTUQ 141800Z AUTO 21007KT 180V240 ////NDV ////// 25/23 Q1007 A2976
TAF VTUQ 141700Z 1418/1518 23007KT 8000 SCT025 BKN100 
     BECMG 1420/1422 5000 BR 
     BECMG 1500/1502 8000 NSW 
     TEMPO 1508/1512 VRB15KT 5000 TSRA FEW018CB BKN020 OVC100
       
VTSF 141300Z VRB02KT 9999 FEW018 28/24 Q1007 NOSIG
TAF VTSF 141700Z 1418/1518 VRB02KT 9999 FEW020 
     BECMG 1503/1505 23010KT 
     BECMG 1513/1515 VRB02KT
       
TAF VTCN 141700Z 1418/1518 22005KT 9999 BKN030 
     TEMPO 1508/1515 VRB15G25KT 5000 TSRA FEW025CB BKN030
       
VTSC 141500Z 26002KT 9999 FEW020 27/25 Q1009 NOSIG
TAF VTSC 141700Z 1418/1518 20003KT 9999 FEW020 
     BECMG 1503/1505 06010KT 
     BECMG 1513/1515 20003KT
       
TAF VTSK 141700Z 1418/1518 18003KT 9999 FEW020 
     BECMG 1504/1506 24010KT 
     BECMG 1513/1515 VRB02KT
       
TAF VTPB 141700Z 1418/1518 22005KT 9999 BKN030 
     TEMPO 1508/1515 VRB15G25KT 5000 TSRA FEW025CB BKN030
       
VTPP 141300Z 15002KT 8000 FEW035 27/24 Q1004 NOSIG
TAF VTPP 141700Z 1418/1518 22005KT 9999 BKN030 
     TEMPO 1508/1515 VRB15G25KT 5000 TSRA FEW025CB BKN030
       
TAF VTCP 141700Z 1418/1518 22005KT 9999 BKN030 
     TEMPO 1508/1515 VRB15G25KT 5000 TSRA FEW025CB BKN030
       
VTSP 141800Z 00000KT 8000 FEW020 SCT100 26/24 Q1011 NOSIG
TAF VTSP 141700Z 1418/1524 00000KT 8000 FEW020 SCT100 
     BECMG 1500/1502 26010KT 9999 
     BECMG 1514/1516 00000KT 8000
       
VTSR 141800Z 14003KT 110V170 9999 SCT024 26/25 Q1009 NOSIG
TAF VTSR 141700Z 1418/1518 13003KT 9999 SCT025 
     TEMPO 1420/1424 22010G25KT 7000 -RA BKN020 
     BECMG 1502/1504 22010KT 
     BECMG 1516/1518 VRB03KT 8000
       
VTUV 141400Z 23006KT 7000 SCT020 BKN080 25/23 Q1005 NOSIG
TAF VTUV 141700Z 1418/1518 24009KT 8000 SCT020 BKN080 
     TEMPO 1420/1423 VRB15KT 5000 TSRA FEW018CB BKN020 OVC100
       
VTUI 141300Z 25003KT 210V310 9000 SCT030 BKN100 27/25 Q1004 NOSIG
TAF VTUI 141700Z 1418/1518 26005KT 9000 SCT025 BKN100 
     TEMPO 1420/1423 27010KT 6000 -RA BKN020 BKN080 
     TEMPO 1506/1514 VRB15KT 5000 TSRA FEW018CB SCT025 BKN080
       
VTSM 141500Z 00000KT 9000 FEW020 29/24 Q1010 NOSIG
TAF VTSM 141700Z 1418/1518 26005KT 9000 FEW020 SCT100 
     TEMPO 1506/1512 26015G25KT 6000 -RA SCT015 BKN100
       
TAF VTSH 141700Z 1418/1518 21005KT 8000 FEW020
       
TAF VTPO 141700Z 1418/1518 22005KT 9999 BKN030 
     TEMPO 1508/1515 VRB15G25KT 5000 TSRA FEW025CB BKN030
       
VTSB 141600Z 23003KT 8000 FEW020 26/24 Q1010
TAF VTSB 141700Z 1418/1518 21005KT 8000 FEW020 SCT100 
     TEMPO 1505/1511 21010G20KT 6000 -RA SCT015 BKN100
       
TAF VTPT 141700Z 1418/1518 24005KT 9999 BKN030 
     TEMPO 1508/1515 VRB15G25KT 5000 TSRA FEW025CB BKN030
       
TAF VTST 141700Z 1418/1518 00000KT 9999 FEW020 
     TEMPO 1420/1424 20010G25KT 5000 RA FEW018TCU SCT020 BKN100 
     BECMG 1501/1503 20008KT 9999 NSW 
     BECMG 1514/1516 00000KT 8000
       
VTBU 141800Z 22007KT 5000 BR FEW020 SCT100 28/23 Q1008 NOSIG
TAF VTBU 141700Z 1418/1518 23008KT 5000 BR FEW020 SCT100 
     BECMG 1420/1422 21004KT 
     TEMPO 1502/1507 VRB10KT 4000 RA BR FEW018CB SCT035 BKN100
       
VTUU 141800Z 22005KT 190V250 8000 -RA FEW018 OVC090 25/24 Q1006 NOSIG
TAF VTUU 141700Z 1418/1518 22008KT 8000 SCT025 BKN100 
     TEMPO 1418/1422 VRB15KT 5000 TSRA FEW018CB BKN020 OVC100 
     BECMG 1505/1507 28010KT FEW020 SCT030
       
VTUD 141500Z VRB02KT 8000 FEW030 BKN100 27/27 Q1005 NOSIG
TAF VTUD 141700Z 1418/1518 22005KT 8000 SCT020 BKN100 
     TEMPO 1418/1422 26010KT 7000 -RA SCT020 BKN080 
     TEMPO 1506/1513 VRB15KT 5000 TSRA FEW018CB SCT025 BKN100